Island Park, ID (83433)

12:56 AM MDT on August 05, 2015 (GMT -0600)
HADS | | Change Station
CLOSE
Current Station
Personal Weather Station
Location: Island Park, ID
Elevation: 6302 ft
Nearby Weather Stations
Active Advisory: Fire Weather Warning

Elev 6302 ft 44.42 °N, 111.41 °W | Updated 1 hour ago

Scattered Clouds
Scattered Clouds
56.0 °F
Feels Like 56.0 °F
N
0.0
Wind Variable Wind from North
Gusts 0.0 mph

Today
High -- | Low -- °F
--% Chance of Precip.
Yesterday
High -- | Low -- °F
Precip. -- in
6:16 AM 8:45 PM
Waning Gibbous, 70% visible
Pressure 30.21 in
Visibility 10.0 miles
Clouds Scattered Clouds 11000 ft
Dew Point Not available.
Humidity Not available.
Rainfall in
Snow Depth Not available.
UV 0 out of 12
Pollen 5.10 out of 12
Air Quality Not available.
Flu Activity Not available.
METAR KWYS 050630Z AUTO 27004KT 10SM SCT110 09/08 A3021 RMK AO2

More Conditions Fewer Conditions

Pressure 30.21 in
Visibility 10.0 miles
Clouds Scattered Clouds 11000 ft
Dew Point Not available.
Humidity Not available.
Rainfall in
Snow Depth Not available.
UV 0 out of 12
Pollen 5.10 out of 12
Air Quality Not available.
Flu Activity Not available.
METAR KWYS 050630Z AUTO 27004KT 10SM SCT110 09/08 A3021 RMK AO2

More Conditions Fewer Conditions

10-Day Weather Forecast

×

Almanac

Astronomy

Aug. 05, 2015 Rise Set
Actual Time
Civil Twilight
Nautical Twilight
Astronomical Twilight
Moon
Length of Visible Light
Length of Day
Tomorrow will be .
, % of the Moon is Illuminated

Today's Extremes

State Highs State Lows

Community

WunderPhotos

Upload Photos

1,844,105 photos uploaded!

WunderBlogs® & News

Nearby

Air Quality

  Air Quality AQ Index Pollutant
Not available.

Snow Depth

Station Depth Elevation

Earthquake Activity

City Distance Mag. Time & Date
Minimum magnitude displayed is 2.5.

Coastal Water Temperatures

Place Temperature

Stations

Nearby Weather Stations

Station Location Temp. Windchill Dew Point Humidity Wind Precip. Elev Updated Type
                   
Fire Weather Warning
Statement as of 1:07 PM MDT on August 04, 2015

... Red flag warning in effect from 9 am to 9 PM MDT Wednesday for
thunderstorms and gusty winds for southeast Idaho fire weather
zones 410 and 413 below 5000ft...

The National Weather Service in Pocatello has issued a red flag
warning... which is in effect from 9 am to 9 PM MDT Wednesday.

* Affected area... fire weather zones 410 and 413 below 5000ft.

* Wind... gusts to around 50mph with thunderstorms.

* Thunderstorms... scattered or greater coverage from late
morning Wednesday through the evening hours.

* Impacts... any fires that develop will likely spread rapidly.
Outdoor burning is not recommended.

Precautionary/preparedness actions...

A red flag warning means that critical fire weather conditions
are either occurring now... or will shortly. Fires may experience
rapid rates of growth. Please advise the appropriate officials or
fire crews in the field of the red flag warning for portions of
southeast Idaho.